sensor_id;sensor_type;location;lat;lon;timestamp;P1;durP1;ratioP1;P2;durP2;ratioP2
18657;SDS011;9458;50.942;5.074;2023-02-05T00:01:35;42.85;;;23.70;;
18657;SDS011;9458;50.942;5.074;2023-02-05T00:04:12;38.78;;;24.08;;
18657;SDS011;9458;50.942;5.074;2023-02-05T00:06:40;37.85;;;22.70;;
18657;SDS011;9458;50.942;5.074;2023-02-05T00:09:14;39.47;;;22.98;;
18657;SDS011;9458;50.942;5.074;2023-02-05T00:11:42;40.85;;;23.67;;
18657;SDS011;9458;50.942;5.074;2023-02-05T00:14:10;39.97;;;23.33;;
18657;SDS011;9458;50.942;5.074;2023-02-05T00:16:37;44.10;;;24.83;;
18657;SDS011;9458;50.942;5.074;2023-02-05T00:19:05;37.60;;;23.20;;
18657;SDS011;9458;50.942;5.074;2023-02-05T00:21:33;41.75;;;24.00;;
18657;SDS011;9458;50.942;5.074;2023-02-05T00:24:01;44.15;;;24.70;;
18657;SDS011;9458;50.942;5.074;2023-02-05T00:26:30;43.38;;;24.52;;
18657;SDS011;9458;50.942;5.074;2023-02-05T00:28:58;48.25;;;25.10;;
18657;SDS011;9458;50.942;5.074;2023-02-05T00:31:26;43.67;;;24.23;;
18657;SDS011;9458;50.942;5.074;2023-02-05T00:33:55;49.53;;;24.73;;
18657;SDS011;9458;50.942;5.074;2023-02-05T00:36:23;46.13;;;24.30;;
18657;SDS011;9458;50.942;5.074;2023-02-05T00:38:51;40.78;;;24.38;;
18657;SDS011;9458;50.942;5.074;2023-02-05T00:41:18;41.08;;;23.90;;
18657;SDS011;9458;50.942;5.074;2023-02-05T00:43:47;47.13;;;25.88;;
18657;SDS011;9458;50.942;5.074;2023-02-05T00:46:16;43.55;;;24.73;;
18657;SDS011;9458;50.942;5.074;2023-02-05T00:48:44;44.13;;;25.08;;
18657;SDS011;9458;50.942;5.074;2023-02-05T00:51:12;39.13;;;24.10;;
18657;SDS011;9458;50.942;5.074;2023-02-05T00:53:43;44.92;;;25.33;;
18657;SDS011;9458;50.942;5.074;2023-02-05T00:56:12;45.13;;;26.45;;
18657;SDS011;9458;50.942;5.074;2023-02-05T00:58:40;45.95;;;25.27;;
18657;SDS011;9458;50.942;5.074;2023-02-05T01:01:14;42.65;;;25.27;;
18657;SDS011;9458;50.942;5.074;2023-02-05T01:03:48;44.75;;;24.63;;
18657;SDS011;9458;50.942;5.074;2023-02-05T01:06:19;44.60;;;25.45;;
18657;SDS011;9458;50.942;5.074;2023-02-05T01:08:48;45.33;;;24.63;;
18657;SDS011;9458;50.942;5.074;2023-02-05T01:11:18;42.55;;;24.17;;
18657;SDS011;9458;50.942;5.074;2023-02-05T01:13:46;46.40;;;25.70;;
18657;SDS011;9458;50.942;5.074;2023-02-05T01:16:15;47.25;;;24.38;;
18657;SDS011;9458;50.942;5.074;2023-02-05T01:18:44;40.65;;;23.98;;
18657;SDS011;9458;50.942;5.074;2023-02-05T01:21:12;38.22;;;23.83;;
18657;SDS011;9458;50.942;5.074;2023-02-05T01:23:41;38.25;;;23.95;;
18657;SDS011;9458;50.942;5.074;2023-02-05T01:26:10;38.10;;;23.17;;
18657;SDS011;9458;50.942;5.074;2023-02-05T01:28:38;41.85;;;23.90;;
18657;SDS011;9458;50.942;5.074;2023-02-05T01:31:07;38.97;;;23.98;;
18657;SDS011;9458;50.942;5.074;2023-02-05T01:33:37;42.85;;;23.75;;
18657;SDS011;9458;50.942;5.074;2023-02-05T01:36:05;41.40;;;24.42;;
18657;SDS011;9458;50.942;5.074;2023-02-05T01:38:34;40.97;;;24.15;;
18657;SDS011;9458;50.942;5.074;2023-02-05T01:41:01;44.28;;;24.25;;
18657;SDS011;9458;50.942;5.074;2023-02-05T01:43:33;41.08;;;25.20;;
18657;SDS011;9458;50.942;5.074;2023-02-05T01:46:15;47.10;;;24.70;;
18657;SDS011;9458;50.942;5.074;2023-02-05T01:49:02;40.67;;;23.35;;
18657;SDS011;9458;50.942;5.074;2023-02-05T01:51:33;43.05;;;23.27;;
18657;SDS011;9458;50.942;5.074;2023-02-05T01:54:04;41.95;;;23.58;;
18657;SDS011;9458;50.942;5.074;2023-02-05T01:56:36;41.45;;;24.52;;
18657;SDS011;9458;50.942;5.074;2023-02-05T01:59:13;42.40;;;23.30;;
18657;SDS011;9458;50.942;5.074;2023-02-05T02:01:48;43.10;;;24.13;;
18657;SDS011;9458;50.942;5.074;2023-02-05T02:04:20;43.97;;;24.23;;
18657;SDS011;9458;50.942;5.074;2023-02-05T02:07:01;41.72;;;23.02;;
18657;SDS011;9458;50.942;5.074;2023-02-05T02:09:37;41.10;;;23.95;;
18657;SDS011;9458;50.942;5.074;2023-02-05T02:12:07;40.63;;;24.20;;
18657;SDS011;9458;50.942;5.074;2023-02-05T02:14:39;47.13;;;23.98;;
18657;SDS011;9458;50.942;5.074;2023-02-05T02:17:11;41.83;;;24.30;;
18657;SDS011;9458;50.942;5.074;2023-02-05T02:19:47;41.80;;;24.30;;
18657;SDS011;9458;50.942;5.074;2023-02-05T02:22:33;40.88;;;24.20;;
18657;SDS011;9458;50.942;5.074;2023-02-05T02:25:20;42.33;;;23.98;;
18657;SDS011;9458;50.942;5.074;2023-02-05T02:28:18;39.83;;;24.83;;
18657;SDS011;9458;50.942;5.074;2023-02-05T02:30:58;40.25;;;23.45;;
18657;SDS011;9458;50.942;5.074;2023-02-05T02:33:32;47.45;;;24.40;;
18657;SDS011;9458;50.942;5.074;2023-02-05T02:36:05;41.95;;;24.40;;
18657;SDS011;9458;50.942;5.074;2023-02-05T02:38:39;40.00;;;23.65;;
18657;SDS011;9458;50.942;5.074;2023-02-05T02:41:11;42.28;;;23.90;;
18657;SDS011;9458;50.942;5.074;2023-02-05T02:43:47;39.72;;;24.05;;
18657;SDS011;9458;50.942;5.074;2023-02-05T02:46:19;42.22;;;24.02;;
18657;SDS011;9458;50.942;5.074;2023-02-05T02:48:51;39.58;;;24.48;;
18657;SDS011;9458;50.942;5.074;2023-02-05T02:51:22;36.72;;;22.70;;
18657;SDS011;9458;50.942;5.074;2023-02-05T02:53:55;36.80;;;22.35;;
18657;SDS011;9458;50.942;5.074;2023-02-05T02:56:26;37.20;;;22.92;;
18657;SDS011;9458;50.942;5.074;2023-02-05T02:58:59;38.95;;;23.30;;
18657;SDS011;9458;50.942;5.074;2023-02-05T03:01:30;41.10;;;23.33;;
18657;SDS011;9458;50.942;5.074;2023-02-05T03:04:11;36.47;;;21.20;;
18657;SDS011;9458;50.942;5.074;2023-02-05T03:06:41;39.53;;;22.75;;
18657;SDS011;9458;50.942;5.074;2023-02-05T03:09:16;38.10;;;22.55;;
18657;SDS011;9458;50.942;5.074;2023-02-05T03:11:50;36.60;;;22.67;;
18657;SDS011;9458;50.942;5.074;2023-02-05T03:14:24;37.47;;;23.20;;
18657;SDS011;9458;50.942;5.074;2023-02-05T03:16:52;40.95;;;24.10;;
18657;SDS011;9458;50.942;5.074;2023-02-05T03:19:20;39.08;;;23.85;;
18657;SDS011;9458;50.942;5.074;2023-02-05T03:21:50;40.15;;;23.63;;
18657;SDS011;9458;50.942;5.074;2023-02-05T03:24:21;39.55;;;23.25;;
18657;SDS011;9458;50.942;5.074;2023-02-05T03:26:50;39.40;;;23.35;;
18657;SDS011;9458;50.942;5.074;2023-02-05T03:29:19;39.80;;;23.15;;
18657;SDS011;9458;50.942;5.074;2023-02-05T03:31:56;35.70;;;22.15;;
18657;SDS011;9458;50.942;5.074;2023-02-05T03:34:35;36.30;;;21.85;;
18657;SDS011;9458;50.942;5.074;2023-02-05T03:37:11;35.33;;;20.95;;
18657;SDS011;9458;50.942;5.074;2023-02-05T03:39:47;35.08;;;21.17;;
18657;SDS011;9458;50.942;5.074;2023-02-05T03:42:27;31.15;;;19.85;;
18657;SDS011;9458;50.942;5.074;2023-02-05T03:48:01;31.65;;;19.33;;
18657;SDS011;9458;50.942;5.074;2023-02-05T03:50:40;27.88;;;17.27;;
18657;SDS011;9458;50.942;5.074;2023-02-05T03:53:18;25.63;;;16.65;;
18657;SDS011;9458;50.942;5.074;2023-02-05T03:55:49;27.83;;;16.20;;
18657;SDS011;9458;50.942;5.074;2023-02-05T03:58:27;28.02;;;16.33;;
18657;SDS011;9458;50.942;5.074;2023-02-05T04:01:04;28.08;;;16.50;;
18657;SDS011;9458;50.942;5.074;2023-02-05T04:03:33;23.00;;;15.63;;
18657;SDS011;9458;50.942;5.074;2023-02-05T04:06:01;24.63;;;15.80;;
18657;SDS011;9458;50.942;5.074;2023-02-05T04:08:29;23.40;;;14.35;;
18657;SDS011;9458;50.942;5.074;2023-02-05T04:10:57;23.60;;;15.65;;
18657;SDS011;9458;50.942;5.074;2023-02-05T04:13:24;26.25;;;14.30;;
18657;SDS011;9458;50.942;5.074;2023-02-05T04:15:53;24.60;;;14.63;;
18657;SDS011;9458;50.942;5.074;2023-02-05T04:18:22;23.98;;;14.55;;
18657;SDS011;9458;50.942;5.074;2023-02-05T04:20:50;21.45;;;14.18;;
18657;SDS011;9458;50.942;5.074;2023-02-05T04:23:18;22.35;;;13.15;;
18657;SDS011;9458;50.942;5.074;2023-02-05T04:25:46;21.33;;;13.95;;
18657;SDS011;9458;50.942;5.074;2023-02-05T04:28:18;21.75;;;14.13;;
18657;SDS011;9458;50.942;5.074;2023-02-05T04:30:46;22.63;;;13.07;;
18657;SDS011;9458;50.942;5.074;2023-02-05T04:33:15;22.60;;;13.18;;
18657;SDS011;9458;50.942;5.074;2023-02-05T04:35:45;22.42;;;13.93;;
18657;SDS011;9458;50.942;5.074;2023-02-05T04:38:13;19.92;;;12.57;;
18657;SDS011;9458;50.942;5.074;2023-02-05T04:40:40;20.02;;;12.13;;
18657;SDS011;9458;50.942;5.074;2023-02-05T04:43:09;17.85;;;12.25;;
18657;SDS011;9458;50.942;5.074;2023-02-05T04:45:37;21.45;;;12.85;;
18657;SDS011;9458;50.942;5.074;2023-02-05T04:48:06;17.02;;;12.38;;
18657;SDS011;9458;50.942;5.074;2023-02-05T04:50:34;19.27;;;12.30;;
18657;SDS011;9458;50.942;5.074;2023-02-05T04:53:05;18.75;;;11.82;;
18657;SDS011;9458;50.942;5.074;2023-02-05T04:55:33;19.60;;;11.90;;
18657;SDS011;9458;50.942;5.074;2023-02-05T04:58:02;17.90;;;11.48;;
18657;SDS011;9458;50.942;5.074;2023-02-05T05:00:30;18.48;;;11.65;;
18657;SDS011;9458;50.942;5.074;2023-02-05T05:02:58;17.30;;;10.88;;
18657;SDS011;9458;50.942;5.074;2023-02-05T05:05:27;20.42;;;11.68;;
18657;SDS011;9458;50.942;5.074;2023-02-05T05:07:55;20.95;;;11.52;;
18657;SDS011;9458;50.942;5.074;2023-02-05T05:10:27;19.17;;;12.48;;
18657;SDS011;9458;50.942;5.074;2023-02-05T05:12:55;22.15;;;11.68;;
18657;SDS011;9458;50.942;5.074;2023-02-05T05:15:23;16.67;;;11.65;;
18657;SDS011;9458;50.942;5.074;2023-02-05T05:17:50;21.42;;;12.52;;
18657;SDS011;9458;50.942;5.074;2023-02-05T05:20:18;16.65;;;11.70;;
18657;SDS011;9458;50.942;5.074;2023-02-05T05:22:45;16.15;;;11.38;;
18657;SDS011;9458;50.942;5.074;2023-02-05T05:25:14;20.25;;;11.77;;
18657;SDS011;9458;50.942;5.074;2023-02-05T05:27:45;20.23;;;10.75;;
18657;SDS011;9458;50.942;5.074;2023-02-05T05:30:12;17.48;;;11.43;;
18657;SDS011;9458;50.942;5.074;2023-02-05T05:32:40;16.67;;;10.55;;
18657;SDS011;9458;50.942;5.074;2023-02-05T05:35:07;14.32;;;9.10;;
18657;SDS011;9458;50.942;5.074;2023-02-05T05:37:35;15.38;;;9.48;;
18657;SDS011;9458;50.942;5.074;2023-02-05T05:40:04;21.33;;;10.65;;
18657;SDS011;9458;50.942;5.074;2023-02-05T05:42:50;15.27;;;9.73;;
18657;SDS011;9458;50.942;5.074;2023-02-05T05:45:36;14.32;;;9.43;;
18657;SDS011;9458;50.942;5.074;2023-02-05T05:48:04;18.02;;;9.27;;
18657;SDS011;9458;50.942;5.074;2023-02-05T05:50:34;16.85;;;9.35;;
18657;SDS011;9458;50.942;5.074;2023-02-05T05:53:01;11.85;;;9.18;;
18657;SDS011;9458;50.942;5.074;2023-02-05T05:55:30;15.55;;;9.40;;
18657;SDS011;9458;50.942;5.074;2023-02-05T05:57:59;15.93;;;9.55;;
18657;SDS011;9458;50.942;5.074;2023-02-05T06:00:27;16.10;;;9.68;;
18657;SDS011;9458;50.942;5.074;2023-02-05T06:02:55;14.30;;;9.35;;
18657;SDS011;9458;50.942;5.074;2023-02-05T06:05:23;15.85;;;9.23;;
18657;SDS011;9458;50.942;5.074;2023-02-05T06:07:51;14.30;;;9.50;;
18657;SDS011;9458;50.942;5.074;2023-02-05T06:10:19;16.73;;;9.32;;
18657;SDS011;9458;50.942;5.074;2023-02-05T06:12:47;18.13;;;10.27;;
18657;SDS011;9458;50.942;5.074;2023-02-05T06:15:16;17.92;;;9.73;;
18657;SDS011;9458;50.942;5.074;2023-02-05T06:17:44;14.77;;;9.57;;
18657;SDS011;9458;50.942;5.074;2023-02-05T06:20:13;16.83;;;10.23;;
18657;SDS011;9458;50.942;5.074;2023-02-05T06:22:42;17.67;;;11.00;;
18657;SDS011;9458;50.942;5.074;2023-02-05T06:25:10;17.05;;;10.07;;
18657;SDS011;9458;50.942;5.074;2023-02-05T06:27:38;16.27;;;10.98;;
18657;SDS011;9458;50.942;5.074;2023-02-05T06:30:05;19.42;;;11.27;;
18657;SDS011;9458;50.942;5.074;2023-02-05T06:32:35;18.25;;;11.30;;
18657;SDS011;9458;50.942;5.074;2023-02-05T06:35:03;16.92;;;11.23;;
18657;SDS011;9458;50.942;5.074;2023-02-05T06:37:33;16.00;;;10.95;;
18657;SDS011;9458;50.942;5.074;2023-02-05T06:40:00;15.60;;;11.25;;
18657;SDS011;9458;50.942;5.074;2023-02-05T06:42:29;18.80;;;11.02;;
18657;SDS011;9458;50.942;5.074;2023-02-05T06:44:58;17.98;;;11.07;;
18657;SDS011;9458;50.942;5.074;2023-02-05T06:47:26;15.90;;;10.93;;
18657;SDS011;9458;50.942;5.074;2023-02-05T06:49:55;15.80;;;10.45;;
18657;SDS011;9458;50.942;5.074;2023-02-05T06:52:23;18.23;;;11.52;;
18657;SDS011;9458;50.942;5.074;2023-02-05T06:54:51;16.15;;;10.70;;
18657;SDS011;9458;50.942;5.074;2023-02-05T06:57:19;15.88;;;10.70;;
18657;SDS011;9458;50.942;5.074;2023-02-05T06:59:46;15.73;;;11.02;;
18657;SDS011;9458;50.942;5.074;2023-02-05T07:02:14;15.20;;;11.27;;
18657;SDS011;9458;50.942;5.074;2023-02-05T07:04:52;17.20;;;12.27;;
18657;SDS011;9458;50.942;5.074;2023-02-05T07:07:23;15.90;;;11.30;;
18657;SDS011;9458;50.942;5.074;2023-02-05T07:09:58;17.15;;;11.90;;
18657;SDS011;9458;50.942;5.074;2023-02-05T07:12:30;17.70;;;11.70;;
18657;SDS011;9458;50.942;5.074;2023-02-05T07:14:58;16.80;;;11.32;;
18657;SDS011;9458;50.942;5.074;2023-02-05T07:17:26;14.90;;;11.20;;
18657;SDS011;9458;50.942;5.074;2023-02-05T07:19:53;19.23;;;11.43;;
18657;SDS011;9458;50.942;5.074;2023-02-05T07:22:20;19.88;;;11.90;;
18657;SDS011;9458;50.942;5.074;2023-02-05T07:24:50;13.50;;;9.32;;
18657;SDS011;9458;50.942;5.074;2023-02-05T07:27:17;10.63;;;8.13;;
18657;SDS011;9458;50.942;5.074;2023-02-05T07:29:45;7.57;;;5.35;;
18657;SDS011;9458;50.942;5.074;2023-02-05T07:32:13;4.60;;;3.90;;
18657;SDS011;9458;50.942;5.074;2023-02-05T07:34:41;7.47;;;3.75;;
18657;SDS011;9458;50.942;5.074;2023-02-05T07:37:09;7.35;;;3.15;;
18657;SDS011;9458;50.942;5.074;2023-02-05T07:39:40;5.05;;;2.38;;
18657;SDS011;9458;50.942;5.074;2023-02-05T07:42:08;6.50;;;2.33;;
18657;SDS011;9458;50.942;5.074;2023-02-05T07:44:36;3.55;;;1.90;;
18657;SDS011;9458;50.942;5.074;2023-02-05T07:47:05;8.32;;;1.88;;
18657;SDS011;9458;50.942;5.074;2023-02-05T07:49:32;4.25;;;1.33;;
18657;SDS011;9458;50.942;5.074;2023-02-05T07:52:01;8.82;;;2.05;;
18657;SDS011;9458;50.942;5.074;2023-02-05T07:54:29;3.47;;;1.20;;
18657;SDS011;9458;50.942;5.074;2023-02-05T07:56:58;4.65;;;0.82;;
18657;SDS011;9458;50.942;5.074;2023-02-05T07:59:27;1.25;;;0.75;;
18657;SDS011;9458;50.942;5.074;2023-02-05T08:01:55;3.72;;;0.73;;
18657;SDS011;9458;50.942;5.074;2023-02-05T08:04:23;6.40;;;1.45;;
18657;SDS011;9458;50.942;5.074;2023-02-05T08:06:51;5.63;;;1.20;;
18657;SDS011;9458;50.942;5.074;2023-02-05T08:09:22;4.15;;;1.00;;
18657;SDS011;9458;50.942;5.074;2023-02-05T08:11:49;3.42;;;1.30;;
18657;SDS011;9458;50.942;5.074;2023-02-05T08:14:19;5.93;;;0.90;;
18657;SDS011;9458;50.942;5.074;2023-02-05T08:16:47;2.17;;;0.77;;
18657;SDS011;9458;50.942;5.074;2023-02-05T08:19:15;3.55;;;1.67;;
18657;SDS011;9458;50.942;5.074;2023-02-05T08:21:46;3.45;;;0.77;;
18657;SDS011;9458;50.942;5.074;2023-02-05T08:24:15;4.95;;;0.93;;
18657;SDS011;9458;50.942;5.074;2023-02-05T08:26:45;6.85;;;0.90;;
18657;SDS011;9458;50.942;5.074;2023-02-05T08:29:15;7.18;;;0.75;;
18657;SDS011;9458;50.942;5.074;2023-02-05T08:31:45;3.00;;;1.10;;
18657;SDS011;9458;50.942;5.074;2023-02-05T08:34:14;4.28;;;0.75;;
18657;SDS011;9458;50.942;5.074;2023-02-05T08:36:42;2.15;;;0.47;;
18657;SDS011;9458;50.942;5.074;2023-02-05T08:39:09;6.10;;;0.95;;
18657;SDS011;9458;50.942;5.074;2023-02-05T08:41:37;5.53;;;0.75;;
18657;SDS011;9458;50.942;5.074;2023-02-05T08:44:05;2.78;;;0.93;;
18657;SDS011;9458;50.942;5.074;2023-02-05T08:46:33;4.85;;;0.82;;
18657;SDS011;9458;50.942;5.074;2023-02-05T08:49:03;2.78;;;0.70;;
18657;SDS011;9458;50.942;5.074;2023-02-05T08:51:31;7.93;;;1.05;;
18657;SDS011;9458;50.942;5.074;2023-02-05T08:54:00;3.67;;;0.80;;
18657;SDS011;9458;50.942;5.074;2023-02-05T08:56:27;2.67;;;0.90;;
18657;SDS011;9458;50.942;5.074;2023-02-05T08:58:56;5.15;;;0.85;;
18657;SDS011;9458;50.942;5.074;2023-02-05T09:01:24;4.75;;;0.90;;
18657;SDS011;9458;50.942;5.074;2023-02-05T09:03:52;5.38;;;0.95;;
18657;SDS011;9458;50.942;5.074;2023-02-05T09:06:22;0.88;;;0.40;;
18657;SDS011;9458;50.942;5.074;2023-02-05T09:08:49;3.20;;;0.85;;
18657;SDS011;9458;50.942;5.074;2023-02-05T09:11:21;4.07;;;1.00;;
18657;SDS011;9458;50.942;5.074;2023-02-05T09:13:51;5.97;;;1.25;;
18657;SDS011;9458;50.942;5.074;2023-02-05T09:16:19;6.78;;;1.20;;
18657;SDS011;9458;50.942;5.074;2023-02-05T09:18:47;6.93;;;1.30;;
18657;SDS011;9458;50.942;5.074;2023-02-05T09:21:15;4.47;;;1.10;;
18657;SDS011;9458;50.942;5.074;2023-02-05T09:23:44;6.00;;;1.63;;
18657;SDS011;9458;50.942;5.074;2023-02-05T09:26:12;16.70;;;4.72;;
18657;SDS011;9458;50.942;5.074;2023-02-05T09:28:41;11.77;;;2.05;;
18657;SDS011;9458;50.942;5.074;2023-02-05T09:31:10;13.13;;;4.35;;
18657;SDS011;9458;50.942;5.074;2023-02-05T09:33:39;11.75;;;6.07;;
18657;SDS011;9458;50.942;5.074;2023-02-05T09:36:15;4.65;;;2.00;;
18657;SDS011;9458;50.942;5.074;2023-02-05T09:38:45;5.32;;;1.80;;
18657;SDS011;9458;50.942;5.074;2023-02-05T09:41:15;6.05;;;2.13;;
18657;SDS011;9458;50.942;5.074;2023-02-05T09:43:51;6.65;;;1.27;;
18657;SDS011;9458;50.942;5.074;2023-02-05T09:46:25;8.43;;;1.63;;
18657;SDS011;9458;50.942;5.074;2023-02-05T09:48:59;7.68;;;1.70;;
18657;SDS011;9458;50.942;5.074;2023-02-05T09:51:32;8.50;;;1.50;;
18657;SDS011;9458;50.942;5.074;2023-02-05T09:54:04;9.25;;;1.63;;
18657;SDS011;9458;50.942;5.074;2023-02-05T09:56:41;11.00;;;1.73;;
18657;SDS011;9458;50.942;5.074;2023-02-05T09:59:11;13.30;;;1.80;;
18657;SDS011;9458;50.942;5.074;2023-02-05T10:01:42;10.40;;;1.83;;
18657;SDS011;9458;50.942;5.074;2023-02-05T10:04:12;5.45;;;1.30;;
18657;SDS011;9458;50.942;5.074;2023-02-05T10:06:59;10.32;;;1.55;;
18657;SDS011;9458;50.942;5.074;2023-02-05T10:16:05;8.77;;;1.65;;
18657;SDS011;9458;50.942;5.074;2023-02-05T10:18:55;9.00;;;1.70;;
18657;SDS011;9458;50.942;5.074;2023-02-05T10:21:43;16.20;;;2.42;;
18657;SDS011;9458;50.942;5.074;2023-02-05T10:24:32;9.85;;;2.05;;
18657;SDS011;9458;50.942;5.074;2023-02-05T10:27:13;9.60;;;1.95;;
18657;SDS011;9458;50.942;5.074;2023-02-05T10:29:47;10.27;;;1.90;;
18657;SDS011;9458;50.942;5.074;2023-02-05T10:32:24;10.57;;;1.90;;
18657;SDS011;9458;50.942;5.074;2023-02-05T10:35:00;9.20;;;2.28;;
18657;SDS011;9458;50.942;5.074;2023-02-05T10:37:35;15.95;;;2.78;;
18657;SDS011;9458;50.942;5.074;2023-02-05T10:40:12;13.57;;;2.30;;
18657;SDS011;9458;50.942;5.074;2023-02-05T10:42:44;12.30;;;2.40;;
18657;SDS011;9458;50.942;5.074;2023-02-05T10:45:16;10.68;;;1.90;;
18657;SDS011;9458;50.942;5.074;2023-02-05T10:47:48;9.82;;;2.00;;
18657;SDS011;9458;50.942;5.074;2023-02-05T10:50:25;14.30;;;2.35;;
18657;SDS011;9458;50.942;5.074;2023-02-05T10:53:02;15.32;;;2.40;;
18657;SDS011;9458;50.942;5.074;2023-02-05T10:55:30;13.88;;;2.10;;
18657;SDS011;9458;50.942;5.074;2023-02-05T10:58:00;9.32;;;1.77;;
18657;SDS011;9458;50.942;5.074;2023-02-05T11:00:34;12.85;;;2.40;;
18657;SDS011;9458;50.942;5.074;2023-02-05T11:03:12;7.88;;;2.03;;
18657;SDS011;9458;50.942;5.074;2023-02-05T11:05:44;13.07;;;2.83;;
18657;SDS011;9458;50.942;5.074;2023-02-05T11:10:59;14.20;;;3.00;;
18657;SDS011;9458;50.942;5.074;2023-02-05T11:13:28;13.55;;;2.33;;
18657;SDS011;9458;50.942;5.074;2023-02-05T11:15:57;11.38;;;2.28;;
18657;SDS011;9458;50.942;5.074;2023-02-05T11:18:28;13.10;;;2.53;;
18657;SDS011;9458;50.942;5.074;2023-02-05T11:20:59;11.57;;;2.35;;
18657;SDS011;9458;50.942;5.074;2023-02-05T11:23:30;13.15;;;2.17;;
18657;SDS011;9458;50.942;5.074;2023-02-05T11:26:09;16.23;;;2.50;;
18657;SDS011;9458;50.942;5.074;2023-02-05T11:28:46;11.40;;;2.70;;
18657;SDS011;9458;50.942;5.074;2023-02-05T11:31:17;16.33;;;3.55;;
18657;SDS011;9458;50.942;5.074;2023-02-05T11:33:47;14.57;;;2.60;;
18657;SDS011;9458;50.942;5.074;2023-02-05T11:36:15;8.48;;;3.13;;
18657;SDS011;9458;50.942;5.074;2023-02-05T11:38:46;14.98;;;2.58;;
18657;SDS011;9458;50.942;5.074;2023-02-05T11:44:15;14.90;;;2.28;;
18657;SDS011;9458;50.942;5.074;2023-02-05T11:46:49;6.50;;;2.30;;
18657;SDS011;9458;50.942;5.074;2023-02-05T11:49:21;12.18;;;2.45;;
18657;SDS011;9458;50.942;5.074;2023-02-05T11:51:53;10.13;;;2.33;;
18657;SDS011;9458;50.942;5.074;2023-02-05T11:54:24;10.90;;;2.28;;
18657;SDS011;9458;50.942;5.074;2023-02-05T11:57:00;12.10;;;2.20;;
18657;SDS011;9458;50.942;5.074;2023-02-05T11:59:34;12.00;;;2.00;;
18657;SDS011;9458;50.942;5.074;2023-02-05T12:05:06;17.88;;;4.00;;
18657;SDS011;9458;50.942;5.074;2023-02-05T12:07:44;14.57;;;2.53;;
18657;SDS011;9458;50.942;5.074;2023-02-05T12:10:18;12.60;;;2.45;;
18657;SDS011;9458;50.942;5.074;2023-02-05T12:12:56;12.82;;;2.22;;
18657;SDS011;9458;50.942;5.074;2023-02-05T12:15:36;13.70;;;2.03;;
18657;SDS011;9458;50.942;5.074;2023-02-05T12:18:14;14.75;;;2.70;;
18657;SDS011;9458;50.942;5.074;2023-02-05T12:20:55;15.48;;;2.58;;
18657;SDS011;9458;50.942;5.074;2023-02-05T12:23:38;17.77;;;2.30;;
18657;SDS011;9458;50.942;5.074;2023-02-05T12:26:32;15.48;;;3.30;;
18657;SDS011;9458;50.942;5.074;2023-02-05T12:29:06;16.20;;;2.22;;
18657;SDS011;9458;50.942;5.074;2023-02-05T12:32:09;10.52;;;2.42;;
18657;SDS011;9458;50.942;5.074;2023-02-05T12:34:50;18.20;;;2.22;;
18657;SDS011;9458;50.942;5.074;2023-02-05T12:37:33;13.57;;;2.88;;
18657;SDS011;9458;50.942;5.074;2023-02-05T12:40:54;14.23;;;2.83;;
18657;SDS011;9458;50.942;5.074;2023-02-05T12:44:14;10.30;;;2.28;;
18657;SDS011;9458;50.942;5.074;2023-02-05T12:46:59;8.52;;;2.00;;
18657;SDS011;9458;50.942;5.074;2023-02-05T12:49:40;16.08;;;2.70;;
18657;SDS011;9458;50.942;5.074;2023-02-05T12:52:22;12.20;;;2.58;;
18657;SDS011;9458;50.942;5.074;2023-02-05T12:55:05;13.88;;;2.28;;
18657;SDS011;9458;50.942;5.074;2023-02-05T12:57:45;12.35;;;2.40;;
18657;SDS011;9458;50.942;5.074;2023-02-05T13:00:18;15.50;;;2.40;;
18657;SDS011;9458;50.942;5.074;2023-02-05T13:02:56;11.50;;;2.42;;
18657;SDS011;9458;50.942;5.074;2023-02-05T13:05:35;12.73;;;2.58;;
18657;SDS011;9458;50.942;5.074;2023-02-05T13:08:11;13.85;;;2.40;;
18657;SDS011;9458;50.942;5.074;2023-02-05T13:10:44;16.63;;;2.72;;
18657;SDS011;9458;50.942;5.074;2023-02-05T13:13:18;13.45;;;2.45;;
18657;SDS011;9458;50.942;5.074;2023-02-05T13:15:54;13.55;;;2.08;;
18657;SDS011;9458;50.942;5.074;2023-02-05T13:18:28;14.55;;;2.72;;
18657;SDS011;9458;50.942;5.074;2023-02-05T13:21:02;14.48;;;2.50;;
18657;SDS011;9458;50.942;5.074;2023-02-05T13:23:50;14.60;;;2.67;;
18657;SDS011;9458;50.942;5.074;2023-02-05T13:26:38;10.80;;;2.33;;
18657;SDS011;9458;50.942;5.074;2023-02-05T13:29:25;11.75;;;2.30;;
18657;SDS011;9458;50.942;5.074;2023-02-05T13:31:59;10.90;;;2.40;;
18657;SDS011;9458;50.942;5.074;2023-02-05T13:34:29;13.52;;;2.30;;
18657;SDS011;9458;50.942;5.074;2023-02-05T13:37:14;9.68;;;2.08;;
18657;SDS011;9458;50.942;5.074;2023-02-05T13:40:23;8.30;;;1.77;;
18657;SDS011;9458;50.942;5.074;2023-02-05T13:43:23;14.55;;;2.55;;
18657;SDS011;9458;50.942;5.074;2023-02-05T13:52:06;15.10;;;2.55;;
18657;SDS011;9458;50.942;5.074;2023-02-05T13:54:51;15.30;;;2.20;;
18657;SDS011;9458;50.942;5.074;2023-02-05T14:00:35;11.27;;;2.67;;
18657;SDS011;9458;50.942;5.074;2023-02-05T14:03:08;8.32;;;2.03;;
18657;SDS011;9458;50.942;5.074;2023-02-05T14:06:17;11.50;;;2.45;;
18657;SDS011;9458;50.942;5.074;2023-02-05T14:09:04;10.82;;;2.05;;
18657;SDS011;9458;50.942;5.074;2023-02-05T14:14:23;14.25;;;2.47;;
18657;SDS011;9458;50.942;5.074;2023-02-05T14:16:53;14.07;;;1.77;;
18657;SDS011;9458;50.942;5.074;2023-02-05T14:19:24;11.70;;;2.53;;
18657;SDS011;9458;50.942;5.074;2023-02-05T14:21:59;10.43;;;2.05;;
18657;SDS011;9458;50.942;5.074;2023-02-05T14:30:32;16.08;;;2.40;;
18657;SDS011;9458;50.942;5.074;2023-02-05T14:33:25;10.10;;;1.80;;
18657;SDS011;9458;50.942;5.074;2023-02-05T14:39:02;6.72;;;1.70;;
18657;SDS011;9458;50.942;5.074;2023-02-05T14:41:44;5.45;;;1.38;;
18657;SDS011;9458;50.942;5.074;2023-02-05T14:44:23;7.35;;;2.00;;
18657;SDS011;9458;50.942;5.074;2023-02-05T14:46:56;12.27;;;2.08;;
18657;SDS011;9458;50.942;5.074;2023-02-05T14:49:28;10.55;;;1.85;;
18657;SDS011;9458;50.942;5.074;2023-02-05T14:52:06;10.43;;;2.05;;
18657;SDS011;9458;50.942;5.074;2023-02-05T14:54:46;6.97;;;2.00;;
18657;SDS011;9458;50.942;5.074;2023-02-05T14:57:24;13.65;;;3.17;;
18657;SDS011;9458;50.942;5.074;2023-02-05T14:59:55;11.95;;;1.73;;
18657;SDS011;9458;50.942;5.074;2023-02-05T15:05:34;4.32;;;1.40;;
18657;SDS011;9458;50.942;5.074;2023-02-05T15:08:17;9.32;;;1.67;;
18657;SDS011;9458;50.942;5.074;2023-02-05T15:10:50;10.57;;;2.20;;
18657;SDS011;9458;50.942;5.074;2023-02-05T15:13:22;8.18;;;2.05;;
18657;SDS011;9458;50.942;5.074;2023-02-05T15:16:08;17.77;;;2.10;;
18657;SDS011;9458;50.942;5.074;2023-02-05T15:18:54;8.07;;;1.70;;
18657;SDS011;9458;50.942;5.074;2023-02-05T15:21:25;11.50;;;1.83;;
18657;SDS011;9458;50.942;5.074;2023-02-05T15:23:57;11.55;;;2.65;;
18657;SDS011;9458;50.942;5.074;2023-02-05T15:26:29;18.70;;;2.35;;
18657;SDS011;9458;50.942;5.074;2023-02-05T15:29:13;11.48;;;2.10;;
18657;SDS011;9458;50.942;5.074;2023-02-05T15:31:46;8.75;;;1.85;;
18657;SDS011;9458;50.942;5.074;2023-02-05T15:34:22;13.82;;;1.92;;
18657;SDS011;9458;50.942;5.074;2023-02-05T15:36:57;14.05;;;2.10;;
18657;SDS011;9458;50.942;5.074;2023-02-05T15:39:29;9.43;;;1.60;;
18657;SDS011;9458;50.942;5.074;2023-02-05T15:42:01;10.82;;;1.73;;
18657;SDS011;9458;50.942;5.074;2023-02-05T15:44:33;8.27;;;1.95;;
18657;SDS011;9458;50.942;5.074;2023-02-05T15:47:06;10.50;;;1.92;;
18657;SDS011;9458;50.942;5.074;2023-02-05T15:49:42;10.35;;;1.80;;
18657;SDS011;9458;50.942;5.074;2023-02-05T15:52:17;9.82;;;2.08;;
18657;SDS011;9458;50.942;5.074;2023-02-05T15:54:52;8.57;;;2.65;;
18657;SDS011;9458;50.942;5.074;2023-02-05T15:57:25;12.20;;;2.60;;
18657;SDS011;9458;50.942;5.074;2023-02-05T15:59:58;9.23;;;2.17;;
18657;SDS011;9458;50.942;5.074;2023-02-05T16:02:49;10.70;;;2.58;;